Time,TemperatureF,DewpointF,PressureIn,WindDirection,WindDirectionDegrees,WindSpeedMPH,WindSpeedGustMPH,Humidity,HourlyPrecipIn,Conditions,Clouds,dailyrainin,SoftwareType,DateUTC
2013-06-19 00:00:00,67.7,61.3,29.99,East,94,1.0,1.0,80,0.00,,,0.00,Wunderground v.1.15,2013-06-19 04:00:00,
2013-06-19 00:10:00,67.4,61.4,29.99,ENE,69,0.0,0.0,81,0.00,,,0.00,Wunderground v.1.15,2013-06-19 04:10:00,
2013-06-19 00:20:00,66.7,61.0,29.99,East,87,1.0,1.0,82,0.00,,,0.00,Wunderground v.1.15,2013-06-19 04:20:00,
2013-06-19 00:30:00,66.4,60.7,30.00,ENE,68,2.0,2.0,82,0.00,,,0.00,Wunderground v.1.15,2013-06-19 04:30:00,
2013-06-19 00:40:00,66.6,60.9,30.00,East,92,2.0,2.0,82,0.00,,,0.00,Wunderground v.1.15,2013-06-19 04:40:00,
2013-06-19 00:50:00,66.5,60.8,30.00,ENE,72,2.0,2.0,82,0.00,,,0.00,Wunderground v.1.15,2013-06-19 04:50:00,
2013-06-19 01:00:00,66.2,60.5,30.00,ENE,69,1.0,2.0,82,0.00,,,0.00,Wunderground v.1.15,2013-06-19 05:00:00,
2013-06-19 01:10:00,65.7,60.4,30.00,ENE,74,1.0,2.0,83,0.00,,,0.00,Wunderground v.1.15,2013-06-19 05:10:00,
2013-06-19 01:20:00,65.3,59.7,30.00,ENE,74,2.0,3.0,82,0.00,,,0.00,Wunderground v.1.15,2013-06-19 05:20:00,
2013-06-19 01:30:00,65.2,59.6,30.00,ENE,77,2.0,2.0,82,0.00,,,0.00,Wunderground v.1.15,2013-06-19 05:30:00,
2013-06-19 01:40:00,64.8,59.2,30.00,East,88,2.0,2.0,82,0.00,,,0.00,Wunderground v.1.15,2013-06-19 05:40:00,
2013-06-19 01:50:00,64.4,59.1,30.00,ENE,67,0.0,0.0,83,0.00,,,0.00,Wunderground v.1.15,2013-06-19 05:50:00,
2013-06-19 02:00:00,63.8,59.2,30.00,ENE,67,0.0,2.0,85,0.00,,,0.00,Wunderground v.1.15,2013-06-19 06:00:00,
2013-06-19 02:10:00,63.3,59.0,30.00,ENE,66,1.0,1.0,86,0.00,,,0.00,Wunderground v.1.15,2013-06-19 06:10:00,
2013-06-19 02:20:00,63.0,58.7,30.00,East,87,1.0,1.0,86,0.00,,,0.00,Wunderground v.1.15,2013-06-19 06:20:00,
2013-06-19 02:30:00,62.9,58.3,30.00,ENE,75,1.0,1.0,85,0.00,,,0.00,Wunderground v.1.15,2013-06-19 06:30:00,
2013-06-19 02:40:00,62.6,58.4,30.00,ENE,71,1.0,1.0,86,0.00,,,0.00,Wunderground v.1.15,2013-06-19 06:40:00,
2013-06-19 02:50:00,62.2,58.0,30.00,ENE,65,0.0,0.0,86,0.00,,,0.00,Wunderground v.1.15,2013-06-19 06:50:00,
2013-06-19 03:00:00,61.8,57.6,30.01,ENE,68,0.0,0.0,86,0.00,,,0.00,Wunderground v.1.15,2013-06-19 07:00:00,
2013-06-19 03:10:00,61.4,57.5,30.01,ENE,68,0.0,0.0,87,0.00,,,0.00,Wunderground v.1.15,2013-06-19 07:10:00,
2013-06-19 03:20:00,61.1,57.2,30.01,ENE,68,0.0,0.0,87,0.00,,,0.00,Wunderground v.1.15,2013-06-19 07:20:00,
2013-06-19 03:30:00,60.7,57.1,30.01,ENE,68,0.0,0.0,88,0.00,,,0.00,Wunderground v.1.15,2013-06-19 07:30:00,
2013-06-19 03:40:00,60.2,56.6,30.01,ENE,68,0.0,0.0,88,0.00,,,0.00,Wunderground v.1.15,2013-06-19 07:40:00,
2013-06-19 03:49:00,59.8,56.6,30.02,ENE,68,0.0,0.0,89,0.00,,,0.00,Wunderground v.1.15,2013-06-19 07:49:00,
2013-06-19 03:59:00,59.8,56.6,30.02,ENE,68,0.0,0.0,89,0.00,,,0.00,Wunderground v.1.15,2013-06-19 07:59:00,
2013-06-19 04:09:00,59.6,56.0,30.02,ENE,68,0.0,0.0,88,0.00,,,0.00,Wunderground v.1.15,2013-06-19 08:09:00,
2013-06-19 04:19:00,59.5,55.9,30.02,ENE,68,0.0,0.0,88,0.00,,,0.00,Wunderground v.1.15,2013-06-19 08:19:00,
2013-06-19 04:30:00,59.5,55.9,30.02,ENE,68,0.0,0.0,88,0.00,,,0.00,Wunderground v.1.15,2013-06-19 08:30:00,
2013-06-19 04:39:00,59.5,55.9,30.02,ENE,68,0.0,0.0,88,0.00,,,0.00,Wunderground v.1.15,2013-06-19 08:39:00,
2013-06-19 04:49:00,59.6,55.7,30.02,ENE,68,0.0,1.0,87,0.00,,,0.00,Wunderground v.1.15,2013-06-19 08:49:00,
2013-06-19 04:59:00,59.6,55.7,30.02,ENE,68,0.0,0.0,87,0.00,,,0.00,Wunderground v.1.15,2013-06-19 08:59:00,
2013-06-19 05:09:00,59.4,55.5,30.02,ENE,67,0.0,0.0,87,0.00,,,0.00,Wunderground v.1.15,2013-06-19 09:09:00,
2013-06-19 05:19:00,59.0,55.4,30.03,ENE,67,0.0,0.0,88,0.00,,,0.00,Wunderground v.1.15,2013-06-19 09:19:00,
2013-06-19 05:29:00,58.8,55.3,30.03,ENE,67,0.0,0.0,88,0.00,,,0.00,Wunderground v.1.15,2013-06-19 09:29:00,
2013-06-19 05:39:00,58.5,55.3,30.03,ENE,67,0.0,0.0,89,0.00,,,0.00,Wunderground v.1.15,2013-06-19 09:39:00,
2013-06-19 05:49:00,58.2,55.0,30.03,ENE,67,0.0,0.0,89,0.00,,,0.00,Wunderground v.1.15,2013-06-19 09:49:00,
2013-06-19 05:59:00,57.9,55.0,30.04,ENE,67,0.0,1.0,90,0.00,,,0.00,Wunderground v.1.15,2013-06-19 09:59:00,
2013-06-19 06:09:00,57.8,54.9,30.04,ENE,67,0.0,1.0,90,0.00,,,0.00,Wunderground v.1.15,2013-06-19 10:09:00,
2013-06-19 06:19:00,57.6,54.7,30.05,ENE,67,0.0,0.0,90,0.00,,,0.00,Wunderground v.1.15,2013-06-19 10:19:00,
2013-06-19 06:29:00,57.6,54.7,30.06,ENE,67,0.0,0.0,90,0.00,,,0.00,Wunderground v.1.15,2013-06-19 10:29:00,
2013-06-19 06:39:00,57.5,54.9,30.06,ENE,67,0.0,0.0,91,0.00,,,0.00,Wunderground v.1.15,2013-06-19 10:39:00,
2013-06-19 06:49:00,57.4,54.8,30.06,ENE,66,0.0,1.0,91,0.00,,,0.00,Wunderground v.1.15,2013-06-19 10:49:00,
2013-06-19 06:59:00,57.5,54.9,30.06,ENE,64,0.0,0.0,91,0.00,,,0.00,Wunderground v.1.15,2013-06-19 10:59:00,
2013-06-19 07:09:00,57.7,54.8,30.06,NE,53,0.0,2.0,90,0.00,,,0.00,Wunderground v.1.15,2013-06-19 11:09:00,
2013-06-19 07:19:00,57.9,55.0,30.07,NE,48,1.0,2.0,90,0.00,,,0.00,Wunderground v.1.15,2013-06-19 11:19:00,
2013-06-19 07:29:00,58.3,55.4,30.07,NE,50,1.0,2.0,90,0.00,,,0.00,Wunderground v.1.15,2013-06-19 11:29:00,
2013-06-19 07:39:00,58.8,55.6,30.07,NE,52,1.0,1.0,89,0.00,,,0.00,Wunderground v.1.15,2013-06-19 11:39:00,
2013-06-19 07:49:00,59.8,55.9,30.07,NE,51,1.0,3.0,87,0.00,,,0.00,Wunderground v.1.15,2013-06-19 11:49:00,
2013-06-19 07:59:00,60.7,56.5,30.07,ENE,59,1.0,3.0,86,0.00,,,0.00,Wunderground v.1.15,2013-06-19 11:59:00,
2013-06-19 08:09:00,61.7,57.1,30.08,ENE,59,1.0,1.0,85,0.00,,,0.00,Wunderground v.1.15,2013-06-19 12:09:00,
2013-06-19 08:19:00,62.3,57.1,30.09,ENE,76,2.0,2.0,83,0.00,,,0.00,Wunderground v.1.15,2013-06-19 12:19:00,
2013-06-19 08:29:00,62.9,57.0,30.09,East,95,2.0,2.0,81,0.00,,,0.00,Wunderground v.1.15,2013-06-19 12:29:00,
2013-06-19 08:39:00,63.6,57.3,30.09,NW,312,1.0,1.0,80,0.00,,,0.00,Wunderground v.1.15,2013-06-19 12:39:00,
2013-06-19 08:49:00,64.4,57.0,30.09,NE,53,2.0,3.0,77,0.00,,,0.00,Wunderground v.1.15,2013-06-19 12:49:00,
2013-06-19 08:59:00,65.0,56.1,30.09,ENE,76,3.0,3.0,73,0.00,,,0.00,Wunderground v.1.15,2013-06-19 12:59:00,
2013-06-19 09:09:00,65.5,56.2,30.10,ESE,110,3.0,5.0,72,0.00,,,0.00,Wunderground v.1.15,2013-06-19 13:09:00,
2013-06-19 09:19:00,65.6,56.3,30.10,East,82,4.0,4.0,72,0.00,,,0.00,Wunderground v.1.15,2013-06-19 13:19:00,
2013-06-19 09:29:00,65.8,56.1,30.10,East,96,4.0,5.0,71,0.00,,,0.00,Wunderground v.1.15,2013-06-19 13:29:00,
2013-06-19 09:39:00,66.4,56.7,30.10,East,81,4.0,4.0,71,0.00,,,0.00,Wunderground v.1.15,2013-06-19 13:39:00,
2013-06-19 09:49:00,67.1,56.2,30.10,East,80,3.0,3.0,68,0.00,,,0.00,Wunderground v.1.15,2013-06-19 13:49:00,
2013-06-19 09:59:00,67.6,57.1,30.10,ENE,62,2.0,2.0,69,0.00,,,0.00,Wunderground v.1.15,2013-06-19 13:59:00,
2013-06-19 10:09:00,67.8,55.6,30.10,East,95,4.0,4.0,65,0.00,,,0.00,Wunderground v.1.15,2013-06-19 14:09:00,
2013-06-19 10:18:00,67.6,55.8,30.10,ESE,106,6.0,7.0,66,0.00,,,0.00,Wunderground v.1.15,2013-06-19 14:18:00,
2013-06-19 10:39:00,68.5,56.3,30.10,ENE,69,5.0,5.0,65,0.00,,,0.00,Wunderground v.1.15,2013-06-19 14:39:00,
2013-06-19 10:48:00,69.5,56.3,30.10,East,85,2.0,3.0,63,0.00,,,0.00,Wunderground v.1.15,2013-06-19 14:48:00,
2013-06-19 10:59:00,69.8,57.1,30.10,NE,53,3.0,3.0,64,0.00,,,0.00,Wunderground v.1.15,2013-06-19 14:59:00,
2013-06-19 11:08:00,70.5,57.7,30.10,NNE,14,2.0,2.0,64,0.00,,,0.00,Wunderground v.1.15,2013-06-19 15:08:00,
2013-06-19 11:18:00,71.1,57.9,30.11,ENE,61,3.0,3.0,63,0.00,,,0.00,Wunderground v.1.15,2013-06-19 15:18:00,
2013-06-19 11:28:00,71.2,57.1,30.11,NE,51,3.0,4.0,61,0.00,,,0.00,Wunderground v.1.15,2013-06-19 15:28:00,
2013-06-19 11:39:00,71.3,57.2,30.11,NNE,15,3.0,3.0,61,0.00,,,0.00,Wunderground v.1.15,2013-06-19 15:39:00,
2013-06-19 11:48:00,72.0,57.4,30.11,NNE,24,2.0,2.0,60,0.00,,,0.00,Wunderground v.1.15,2013-06-19 15:48:00,
2013-06-19 11:58:00,71.9,57.7,30.11,East,99,3.0,3.0,61,0.00,,,0.00,Wunderground v.1.15,2013-06-19 15:58:00,
2013-06-19 12:08:00,72.3,57.6,30.11,East,92,2.0,6.0,60,0.00,,,0.00,Wunderground v.1.15,2013-06-19 16:08:00,
2013-06-19 12:18:00,72.2,58.5,30.11,East,92,3.0,5.0,62,0.00,,,0.00,Wunderground v.1.15,2013-06-19 16:18:00,
2013-06-19 12:28:00,72.8,58.6,30.11,ENE,68,2.0,2.0,61,0.00,,,0.00,Wunderground v.1.15,2013-06-19 16:28:00,
2013-06-19 12:38:00,72.8,57.6,30.11,ENE,78,4.0,4.0,59,0.00,,,0.00,Wunderground v.1.15,2013-06-19 16:38:00,
2013-06-19 12:48:00,73.0,56.9,30.11,NNW,338,3.0,3.0,57,0.00,,,0.00,Wunderground v.1.15,2013-06-19 16:48:00,
2013-06-19 12:58:00,73.9,57.7,30.11,ESE,103,3.0,5.0,57,0.00,,,0.00,Wunderground v.1.15,2013-06-19 16:58:00,
2013-06-19 13:08:00,73.9,59.1,30.10,ESE,109,4.0,8.0,60,0.00,,,0.00,Wunderground v.1.15,2013-06-19 17:08:00,
2013-06-19 13:18:00,74.1,58.4,30.10,North,350,3.0,4.0,58,0.00,,,0.00,Wunderground v.1.15,2013-06-19 17:18:00,
2013-06-19 13:28:00,74.1,57.9,30.10,NE,53,3.0,4.0,57,0.00,,,0.00,Wunderground v.1.15,2013-06-19 17:28:00,
2013-06-19 13:38:00,74.8,59.0,30.10,ENE,76,3.0,5.0,58,0.00,,,0.00,Wunderground v.1.15,2013-06-19 17:38:00,
2013-06-19 13:48:00,75.1,58.8,30.10,ENE,75,2.0,5.0,57,0.00,,,0.00,Wunderground v.1.15,2013-06-19 17:48:00,
2013-06-19 13:58:00,75.3,57.5,30.10,East,82,2.0,3.0,54,0.00,,,0.00,Wunderground v.1.15,2013-06-19 17:58:00,
2013-06-19 14:08:00,75.7,58.4,30.09,East,94,2.0,2.0,55,0.00,,,0.00,Wunderground v.1.15,2013-06-19 18:08:00,
2013-06-19 14:19:00,75.9,59.6,30.09,East,92,3.0,3.0,57,0.00,,,0.00,Wunderground v.1.15,2013-06-19 18:19:00,
2013-06-19 14:28:00,76.4,58.5,30.09,East,96,2.0,5.0,54,0.00,,,0.00,Wunderground v.1.15,2013-06-19 18:28:00,
2013-06-19 14:38:00,76.4,58.0,30.09,NW,325,3.0,3.0,53,0.00,,,0.00,Wunderground v.1.15,2013-06-19 18:38:00,
2013-06-19 14:48:00,76.4,58.0,30.09,East,92,2.0,2.0,53,0.00,,,0.00,Wunderground v.1.15,2013-06-19 18:48:00,
2013-06-19 14:58:00,76.7,57.7,30.09,NW,312,1.0,1.0,52,0.00,,,0.00,Wunderground v.1.15,2013-06-19 18:58:00,
2013-06-19 15:08:00,77.2,58.7,30.09,ENE,59,2.0,3.0,53,0.00,,,0.00,Wunderground v.1.15,2013-06-19 19:08:00,
2013-06-19 15:18:00,76.8,57.8,30.09,East,94,3.0,3.0,52,0.00,,,0.00,Wunderground v.1.15,2013-06-19 19:18:00,
2013-06-19 15:28:00,77.2,56.6,30.09,NNW,341,2.0,5.0,49,0.00,,,0.00,Wunderground v.1.15,2013-06-19 19:28:00,
2013-06-19 15:38:00,77.5,59.0,30.09,East,98,2.0,3.0,53,0.00,,,0.00,Wunderground v.1.15,2013-06-19 19:38:00,
2013-06-19 15:48:00,77.5,57.9,30.08,North,355,3.0,3.0,51,0.00,,,0.00,Wunderground v.1.15,2013-06-19 19:48:00,
2013-06-19 15:58:00,77.6,58.6,30.08,NNW,329,2.0,2.0,52,0.00,,,0.00,Wunderground v.1.15,2013-06-19 19:58:00,
2013-06-19 16:08:00,77.7,57.0,30.08,NNE,22,3.0,3.0,49,0.00,,,0.00,Wunderground v.1.15,2013-06-19 20:08:00,
2013-06-19 16:18:00,78.1,57.9,30.07,NNW,328,2.0,2.0,50,0.00,,,0.00,Wunderground v.1.15,2013-06-19 20:18:00,
2013-06-19 16:28:00,78.4,58.2,30.07,North,5,2.0,2.0,50,0.00,,,0.00,Wunderground v.1.15,2013-06-19 20:28:00,
2013-06-19 16:38:00,78.5,57.2,30.07,East,92,2.0,3.0,48,0.00,,,0.00,Wunderground v.1.15,2013-06-19 20:38:00,
2013-06-19 16:49:00,77.8,58.8,30.07,ENE,69,2.0,2.0,52,0.00,,,0.00,Wunderground v.1.15,2013-06-19 20:49:00,
2013-06-19 16:58:00,78.7,59.0,30.07,ENE,73,1.0,3.0,51,0.00,,,0.00,Wunderground v.1.15,2013-06-19 20:58:00,
2013-06-19 17:08:00,77.8,59.8,30.07,East,86,4.0,4.0,54,0.00,,,0.00,Wunderground v.1.15,2013-06-19 21:08:00,
2013-06-19 17:18:00,77.5,59.5,30.07,East,88,4.0,4.0,54,0.00,,,0.00,Wunderground v.1.15,2013-06-19 21:18:00,
2013-06-19 17:28:00,77.8,58.2,30.07,East,95,3.0,3.0,51,0.00,,,0.00,Wunderground v.1.15,2013-06-19 21:28:00,
2013-06-19 17:38:00,77.6,58.0,30.07,ESE,104,2.0,4.0,51,0.00,,,0.00,Wunderground v.1.15,2013-06-19 21:38:00,
2013-06-19 17:48:00,77.7,58.1,30.07,NE,39,4.0,4.0,51,0.00,,,0.00,Wunderground v.1.15,2013-06-19 21:48:00,
2013-06-19 17:58:00,78.0,57.9,30.07,SE,125,2.0,6.0,50,0.00,,,0.00,Wunderground v.1.15,2013-06-19 21:58:00,
2013-06-19 18:08:00,77.4,57.3,30.07,ESE,107,4.0,4.0,50,0.00,,,0.00,Wunderground v.1.15,2013-06-19 22:08:00,
2013-06-19 18:18:00,77.1,57.6,30.06,East,94,4.0,7.0,51,0.00,,,0.00,Wunderground v.1.15,2013-06-19 22:18:00,
2013-06-19 18:28:00,77.3,58.3,30.07,ENE,71,3.0,7.0,52,0.00,,,0.00,Wunderground v.1.15,2013-06-19 22:28:00,
2013-06-19 18:39:00,77.0,56.9,30.07,East,97,4.0,4.0,50,0.00,,,0.00,Wunderground v.1.15,2013-06-19 22:39:00,
2013-06-19 18:48:00,77.3,56.1,30.07,East,98,1.0,1.0,48,0.00,,,0.00,Wunderground v.1.15,2013-06-19 22:48:00,
2013-06-19 18:58:00,77.6,58.0,30.06,ESE,105,0.0,1.0,51,0.00,,,0.00,Wunderground v.1.15,2013-06-19 22:58:00,
2013-06-19 19:08:00,77.1,58.1,30.07,East,98,4.0,5.0,52,0.00,,,0.00,Wunderground v.1.15,2013-06-19 23:08:00,
2013-06-19 19:18:00,76.9,56.8,30.07,East,98,2.0,2.0,50,0.00,,,0.00,Wunderground v.1.15,2013-06-19 23:18:00,
2013-06-19 19:28:00,77.0,59.1,30.07,East,101,1.0,3.0,54,0.00,,,0.00,Wunderground v.1.15,2013-06-19 23:28:00,
2013-06-19 19:38:00,77.2,56.6,30.07,East,98,1.0,1.0,49,0.00,,,0.00,Wunderground v.1.15,2013-06-19 23:38:00,
2013-06-19 19:48:00,76.8,56.8,30.07,East,98,1.0,1.0,50,0.00,,,0.00,Wunderground v.1.15,2013-06-19 23:48:00,
2013-06-19 19:58:00,76.8,60.4,30.08,East,98,0.0,0.0,57,0.00,,,0.00,Wunderground v.1.15,2013-06-19 23:58:00,
2013-06-19 20:08:00,77.3,60.4,30.08,East,98,0.0,0.0,56,0.00,,,0.00,Wunderground v.1.15,2013-06-20 00:08:00,
2013-06-19 20:18:00,76.4,59.0,30.08,East,98,0.0,0.0,55,0.00,,,0.00,Wunderground v.1.15,2013-06-20 00:18:00,
2013-06-19 20:28:00,75.0,59.2,30.08,East,98,0.0,0.0,58,0.00,,,0.00,Wunderground v.1.15,2013-06-20 00:28:00,
2013-06-19 20:38:00,73.3,59.0,30.08,East,98,0.0,0.0,61,0.00,,,0.00,Wunderground v.1.15,2013-06-20 00:38:00,
2013-06-19 20:48:00,72.1,59.2,30.08,East,98,0.0,0.0,64,0.00,,,0.00,Wunderground v.1.15,2013-06-20 00:48:00,
2013-06-19 20:58:00,71.1,60.0,30.08,East,98,0.0,0.0,68,0.00,,,0.00,Wunderground v.1.15,2013-06-20 00:58:00,
2013-06-19 21:08:00,70.1,60.3,30.09,East,98,0.0,0.0,71,0.00,,,0.00,Wunderground v.1.15,2013-06-20 01:08:00,
2013-06-19 21:18:00,69.2,60.2,30.09,East,98,0.0,0.0,73,0.00,,,0.00,Wunderground v.1.15,2013-06-20 01:18:00,
2013-06-19 21:28:00,68.4,60.2,30.09,East,98,0.0,0.0,75,0.00,,,0.00,Wunderground v.1.15,2013-06-20 01:28:00,
2013-06-19 21:38:00,67.6,59.8,30.09,East,98,0.0,0.0,76,0.00,,,0.00,Wunderground v.1.15,2013-06-20 01:38:00,
2013-06-19 21:48:00,66.9,58.3,30.09,East,98,0.0,0.0,74,0.00,,,0.00,Wunderground v.1.15,2013-06-20 01:48:00,
2013-06-19 21:58:00,66.3,58.1,30.09,East,98,0.0,0.0,75,0.00,,,0.00,Wunderground v.1.15,2013-06-20 01:58:00,
2013-06-19 22:08:00,65.8,58.0,30.10,East,98,0.0,0.0,76,0.00,,,0.00,Wunderground v.1.15,2013-06-20 02:08:00,
2013-06-19 22:18:00,65.4,58.4,30.10,East,98,0.0,0.0,78,0.00,,,0.00,Wunderground v.1.15,2013-06-20 02:18:00,
2013-06-19 22:28:00,65.0,58.3,30.10,East,98,0.0,0.0,79,0.00,,,0.00,Wunderground v.1.15,2013-06-20 02:28:00,
2013-06-19 22:38:00,64.8,57.8,30.11,East,98,0.0,0.0,78,0.00,,,0.00,Wunderground v.1.15,2013-06-20 02:38:00,
2013-06-19 22:48:00,64.7,59.4,30.11,East,98,1.0,1.0,83,0.00,,,0.00,Wunderground v.1.15,2013-06-20 02:48:00,
2013-06-19 22:58:00,64.2,58.9,30.11,East,98,0.0,0.0,83,0.00,,,0.00,Wunderground v.1.15,2013-06-20 02:58:00,
2013-06-19 23:08:00,64.1,58.8,30.11,East,98,0.0,0.0,83,0.00,,,0.00,Wunderground v.1.15,2013-06-20 03:08:00,
2013-06-19 23:19:00,63.6,57.7,30.12,East,98,0.0,0.0,81,0.00,,,0.00,Wunderground v.1.15,2013-06-20 03:19:00,
2013-06-19 23:28:00,63.4,57.5,30.12,East,98,0.0,0.0,81,0.00,,,0.00,Wunderground v.1.15,2013-06-20 03:28:00,
2013-06-19 23:38:00,63.1,57.5,30.12,East,98,0.0,0.0,82,0.00,,,0.00,Wunderground v.1.15,2013-06-20 03:38:00,
2013-06-19 23:48:00,62.6,57.0,30.13,East,98,0.0,0.0,82,0.00,,,0.00,Wunderground v.1.15,2013-06-20 03:48:00,
2013-06-19 23:58:00,62.2,57.6,30.13,East,98,0.0,0.0,85,0.00,,,0.00,Wunderground v.1.15,2013-06-20 03:58:00,